Articles

Pooleys Chart - EITM

Share

Trim Flying Club Pooleys Chart for Trim Airfield

Share

Trim Flying Club goes to the Aran Islands

Learn to fly at Trim Flying Club

Rainfall Radar Now

Atlantic Charts Pressure - Today

Atlantic Charts Rainfall - Today

 
 

Atlantic Charts Pressure - Tomorrow

Sunrise Sunset

Click for Dublin, Ireland Forecast

Aviation WX Dublin EIDW

[source: ADDS]
METAR
EIDW 240100Z 11005KT 9999 FEW022 08/04 Q1016 NOSIG =
TAF
TAF EIDW 232300Z 2400/2424 16006KT 9999 FEW020 SCT040 TEMPO 2400/2407 VRB03KT PROB30 TEMPO 2403/2407 3000 BR SCT007 BECMG 2410/2413 14013KT BECMG 2418/2420 11006KT BECMG 2420/2423 VRB03KT PROB40 TEMPO 2422/2424 3000 BR BKN005 =